createdAt,value
2023-05-08T00:00:25.041Z,1.40
2023-05-08T00:02:53.787Z,1.30
2023-05-08T00:05:22.707Z,1.33
2023-05-08T00:07:53.623Z,1.30
2023-05-08T00:10:22.303Z,1.43
2023-05-08T00:12:50.918Z,1.47
2023-05-08T00:15:19.422Z,1.40
2023-05-08T00:17:48.009Z,1.27
2023-05-08T00:20:16.639Z,1.60
2023-05-08T00:22:45.075Z,1.27
2023-05-08T00:25:15.052Z,1.20
2023-05-08T00:27:43.638Z,1.67
2023-05-08T00:30:12.695Z,1.33
2023-05-08T00:32:41.488Z,1.50
2023-05-08T00:35:10.417Z,1.33
2023-05-08T00:37:40.838Z,1.30
2023-05-08T00:40:12.100Z,1.60
2023-05-08T00:42:42.103Z,1.43
2023-05-08T00:45:13.825Z,1.30
2023-05-08T00:47:42.627Z,1.30
2023-05-08T00:50:12.121Z,1.50
2023-05-08T00:52:41.448Z,1.67
2023-05-08T00:55:10.393Z,1.37
2023-05-08T00:57:39.210Z,1.90
2023-05-08T01:00:10.325Z,1.40
2023-05-08T01:02:39.093Z,1.63
2023-05-08T01:05:08.451Z,1.73
2023-05-08T01:07:36.988Z,1.57
2023-05-08T01:10:05.673Z,1.50
2023-05-08T01:12:40.746Z,1.87
2023-05-08T01:15:13.898Z,1.57
2023-05-08T01:17:47.888Z,1.70
2023-05-08T01:20:21.219Z,1.40
2023-05-08T01:23:02.790Z,1.60
2023-05-08T01:25:40.423Z,1.70
2023-05-08T01:28:30.152Z,1.80
2023-05-08T01:31:14.126Z,1.40
2023-05-08T01:33:48.370Z,1.70
2023-05-08T01:36:20.634Z,1.50
2023-05-08T01:38:53.022Z,1.60
2023-05-08T01:41:26.858Z,1.30
2023-05-08T01:43:57.581Z,1.53
2023-05-08T01:46:27.370Z,1.63
2023-05-08T01:49:01.172Z,1.60
2023-05-08T01:51:30.711Z,1.40
2023-05-08T01:54:01.496Z,1.70
2023-05-08T01:56:31.163Z,1.73
2023-05-08T01:59:00.869Z,1.57
2023-05-08T02:01:30.279Z,1.70
2023-05-08T02:04:00.756Z,1.50
2023-05-08T02:06:31.229Z,1.80
2023-05-08T02:09:00.053Z,1.60
2023-05-08T02:11:28.729Z,1.87
2023-05-08T02:13:59.659Z,1.77
2023-05-08T02:16:29.396Z,1.70
2023-05-08T02:18:59.266Z,2.00
2023-05-08T02:21:29.566Z,1.70
2023-05-08T02:23:58.829Z,1.63
2023-05-08T02:26:28.435Z,1.70
2023-05-08T02:28:57.693Z,2.00
2023-05-08T02:31:26.633Z,1.70
2023-05-08T02:33:55.471Z,1.73
2023-05-08T02:36:24.792Z,1.87
2023-05-08T02:38:56.282Z,1.70
2023-05-08T02:41:26.157Z,1.60
2023-05-08T02:43:54.642Z,1.70
2023-05-08T02:46:27.907Z,1.60
2023-05-08T02:48:58.256Z,1.80
2023-05-08T02:51:28.518Z,1.67
2023-05-08T02:54:00.664Z,1.70
2023-05-08T02:56:33.440Z,1.87
2023-05-08T02:59:06.622Z,1.97
2023-05-08T03:01:38.670Z,1.70
2023-05-08T03:04:09.689Z,1.33
2023-05-08T03:06:40.788Z,1.67
2023-05-08T03:09:14.277Z,1.77
2023-05-08T03:11:44.369Z,1.60
2023-05-08T03:14:13.454Z,1.67
2023-05-08T03:16:43.515Z,1.70
2023-05-08T03:19:16.128Z,1.33
2023-05-08T03:21:46.055Z,1.40
2023-05-08T03:24:17.631Z,1.77
2023-05-08T03:26:47.050Z,1.97
2023-05-08T03:29:17.595Z,1.97
2023-05-08T03:31:46.803Z,1.70
2023-05-08T03:34:15.585Z,1.67
2023-05-08T03:36:44.175Z,1.63
2023-05-08T03:39:13.196Z,1.80
2023-05-08T03:41:43.048Z,1.50
2023-05-08T03:44:11.939Z,1.97
2023-05-08T03:46:41.004Z,2.03
2023-05-08T03:49:10.859Z,1.77
2023-05-08T03:51:40.970Z,1.90
2023-05-08T03:54:09.713Z,1.63
2023-05-08T03:56:40.307Z,1.90
2023-05-08T03:59:17.166Z,2.00
2023-05-08T04:01:50.642Z,1.90
2023-05-08T04:04:20.001Z,1.80
2023-05-08T04:06:51.541Z,1.60
2023-05-08T04:09:22.225Z,1.80
2023-05-08T04:11:54.455Z,1.77
2023-05-08T04:14:26.856Z,2.03
2023-05-08T04:16:58.388Z,2.30
2023-05-08T04:19:29.589Z,2.00
2023-05-08T04:22:00.260Z,2.50
2023-05-08T04:24:30.645Z,2.20
2023-05-08T04:26:59.535Z,2.53
2023-05-08T04:29:29.748Z,2.90
2023-05-08T04:31:59.155Z,3.00
2023-05-08T04:34:27.955Z,2.43
2023-05-08T04:36:57.009Z,2.37
2023-05-08T04:39:25.562Z,2.60
2023-05-08T04:41:55.752Z,3.20
2023-05-08T04:44:24.219Z,2.90
2023-05-08T04:46:54.167Z,3.23
2023-05-08T04:49:22.868Z,3.40
2023-05-08T04:51:51.325Z,3.23
2023-05-08T04:54:19.933Z,3.20
2023-05-08T04:56:48.711Z,3.07
2023-05-08T04:59:17.160Z,3.10
2023-05-08T05:01:45.762Z,2.67
2023-05-08T05:04:15.801Z,2.83
2023-05-08T05:06:44.407Z,2.87
2023-05-08T05:09:13.004Z,3.00
2023-05-08T05:11:41.600Z,2.77
2023-05-08T05:14:10.099Z,2.70
2023-05-08T05:16:38.786Z,2.70
2023-05-08T05:19:07.428Z,2.60
2023-05-08T05:21:38.019Z,2.50
2023-05-08T05:24:07.003Z,2.70
2023-05-08T05:26:36.924Z,2.40
2023-05-08T05:29:05.502Z,2.87
2023-05-08T05:31:34.093Z,2.80
2023-05-08T05:34:02.663Z,2.70
2023-05-08T05:36:31.147Z,2.20
2023-05-08T05:39:01.081Z,2.77
2023-05-08T05:41:29.657Z,2.40
2023-05-08T05:43:58.131Z,2.00
2023-05-08T05:46:32.577Z,2.23
2023-05-08T05:49:01.446Z,2.10
2023-05-08T05:51:30.018Z,2.00
2023-05-08T05:53:58.624Z,2.00
2023-05-08T05:56:28.559Z,2.00
2023-05-08T05:58:57.165Z,1.90
2023-05-08T06:01:25.765Z,1.93
2023-05-08T06:03:54.418Z,1.67
2023-05-08T06:06:23.476Z,1.93
2023-05-08T06:08:52.016Z,2.00
2023-05-08T06:11:20.540Z,1.90
2023-05-08T06:13:50.798Z,1.80
2023-05-08T06:16:21.015Z,2.10
2023-05-08T06:18:49.611Z,1.73
2023-05-08T06:21:18.254Z,1.70
2023-05-08T06:23:46.788Z,1.90
2023-05-08T06:26:15.534Z,2.17
2023-05-08T06:28:44.036Z,1.80
2023-05-08T06:31:14.016Z,1.80
2023-05-08T06:33:42.595Z,2.00
2023-05-08T06:36:11.666Z,1.70
2023-05-08T06:38:40.408Z,1.83
2023-05-08T06:41:09.267Z,1.90
2023-05-08T06:43:37.777Z,2.03
2023-05-08T06:46:09.227Z,1.90
2023-05-08T06:48:39.180Z,1.97
2023-05-08T06:51:07.661Z,1.53
2023-05-08T06:53:36.311Z,1.90
2023-05-08T06:56:05.873Z,1.67
2023-05-08T06:58:34.381Z,1.80
2023-05-08T07:01:03.276Z,1.60
2023-05-08T07:03:32.078Z,1.73
2023-05-08T07:06:01.940Z,1.90
2023-05-08T07:08:30.655Z,2.00
2023-05-08T07:10:59.176Z,1.60
2023-05-08T07:13:27.734Z,1.80
2023-05-08T07:15:56.513Z,1.90
2023-05-08T07:18:25.149Z,1.90
2023-05-08T07:20:55.016Z,1.97
2023-05-08T07:23:24.975Z,1.70
2023-05-08T07:25:54.415Z,2.07
2023-05-08T07:28:22.863Z,2.00
2023-05-08T07:30:51.933Z,1.83
2023-05-08T07:33:20.652Z,1.80
2023-05-08T07:35:49.106Z,1.60
2023-05-08T07:38:17.660Z,1.70
2023-05-08T07:40:49.037Z,1.80
2023-05-08T07:43:17.475Z,2.00
2023-05-08T07:45:46.146Z,2.00
2023-05-08T07:48:14.760Z,1.83
2023-05-08T07:50:43.356Z,1.80
2023-05-08T07:53:12.012Z,2.17
2023-05-08T07:55:40.561Z,2.00
2023-05-08T07:58:10.527Z,2.10
2023-05-08T08:00:39.822Z,2.20
2023-05-08T08:03:08.476Z,2.17
2023-05-08T08:05:37.065Z,1.90
2023-05-08T08:08:05.726Z,2.00
2023-05-08T08:10:34.309Z,2.00
2023-05-08T08:13:03.125Z,1.90
2023-05-08T08:15:33.162Z,1.87
2023-05-08T08:18:01.799Z,1.70
2023-05-08T08:20:30.445Z,1.83
2023-05-08T08:22:59.218Z,1.90
2023-05-08T08:25:27.858Z,1.70
2023-05-08T08:27:56.309Z,1.70
2023-05-08T08:30:24.898Z,1.67
2023-05-08T08:32:54.908Z,1.70
2023-05-08T08:35:29.252Z,2.37
2023-05-08T08:37:57.964Z,1.60
2023-05-08T08:40:26.729Z,1.70
2023-05-08T08:42:55.255Z,1.57
2023-05-08T08:45:23.795Z,1.70
2023-05-08T08:47:54.154Z,1.53
2023-05-08T08:50:27.283Z,1.80
2023-05-08T08:52:58.462Z,1.50
2023-05-08T08:55:27.444Z,1.60
2023-05-08T08:58:00.516Z,1.70
2023-05-08T09:00:30.273Z,1.53
2023-05-08T09:02:58.947Z,1.80
2023-05-08T09:05:29.743Z,1.63
2023-05-08T09:07:58.373Z,1.57
2023-05-08T09:10:26.978Z,1.70
2023-05-08T09:12:55.626Z,2.10
2023-05-08T09:15:24.273Z,1.67
2023-05-08T09:17:52.818Z,1.50
2023-05-08T09:20:21.638Z,1.40
2023-05-08T09:22:52.312Z,1.60
2023-05-08T09:25:20.818Z,1.50
2023-05-08T09:27:49.394Z,1.40
2023-05-08T09:30:17.968Z,1.80
2023-05-08T09:32:46.615Z,1.70
2023-05-08T09:35:15.497Z,1.60
2023-05-08T09:37:44.908Z,1.50
2023-05-08T09:40:21.890Z,1.50
2023-05-08T09:42:51.516Z,1.60
2023-05-08T09:45:30.141Z,1.50
2023-05-08T09:47:58.833Z,1.40
2023-05-08T09:50:27.861Z,1.70
2023-05-08T09:52:56.630Z,1.57
2023-05-08T09:55:26.816Z,1.33
2023-05-08T09:57:57.301Z,1.37
2023-05-08T10:00:26.236Z,1.20
2023-05-08T10:02:58.891Z,1.33
2023-05-08T10:05:29.904Z,1.30
2023-05-08T10:07:58.720Z,1.40
2023-05-08T10:10:29.370Z,1.40
2023-05-08T10:13:00.463Z,1.60
2023-05-08T10:15:31.273Z,1.50
2023-05-08T10:18:04.428Z,1.53
2023-05-08T10:20:33.128Z,1.53
2023-05-08T10:23:01.731Z,1.30
2023-05-08T10:25:34.582Z,1.30
2023-05-08T10:28:08.583Z,1.40
2023-05-08T10:30:40.431Z,1.37
2023-05-08T10:33:11.293Z,1.40
2023-05-08T10:35:39.819Z,1.30
2023-05-08T10:38:10.541Z,1.30
2023-05-08T10:40:40.872Z,1.37
2023-05-08T10:43:10.698Z,1.40
2023-05-08T10:45:39.420Z,1.40
2023-05-08T10:48:13.114Z,1.43
2023-05-08T10:50:46.602Z,1.23
2023-05-08T10:53:17.611Z,1.50
2023-05-08T10:55:49.511Z,1.40
2023-05-08T10:58:30.692Z,1.23
2023-05-08T11:01:14.202Z,1.33
2023-05-08T11:03:44.338Z,1.33
2023-05-08T11:06:13.341Z,1.40
2023-05-08T11:08:49.426Z,1.40
2023-05-08T11:11:23.863Z,1.33
2023-05-08T11:13:55.366Z,1.50
2023-05-08T11:16:42.231Z,1.23
2023-05-08T11:19:30.962Z,1.40
2023-05-08T11:22:15.748Z,1.23
2023-05-08T11:24:49.619Z,1.40
2023-05-08T11:27:19.624Z,1.20
2023-05-08T11:30:08.340Z,1.30
2023-05-08T11:32:56.612Z,1.30
2023-05-08T11:35:40.120Z,1.20
2023-05-08T11:38:20.781Z,1.33
2023-05-08T11:40:50.575Z,1.10
2023-05-08T11:43:28.236Z,1.30
2023-05-08T11:45:56.971Z,1.30
2023-05-08T11:48:25.435Z,1.30
2023-05-08T11:50:53.916Z,1.30
2023-05-08T11:53:22.614Z,1.33
2023-05-08T11:55:51.148Z,1.30
2023-05-08T11:58:20.019Z,1.43
2023-05-08T12:00:50.606Z,1.40
2023-05-08T12:03:19.850Z,1.90
2023-05-08T12:05:49.033Z,1.37
2023-05-08T12:08:18.090Z,1.67
2023-05-08T12:10:54.214Z,1.33
2023-05-08T12:13:23.516Z,1.43
2023-05-08T12:15:54.428Z,1.40
2023-05-08T12:18:24.054Z,1.50
2023-05-08T12:20:54.244Z,1.20
2023-05-08T12:23:22.732Z,1.27
2023-05-08T12:25:55.345Z,1.20
2023-05-08T12:28:24.404Z,1.40
2023-05-08T12:30:54.618Z,1.40
2023-05-08T12:33:23.134Z,1.33
2023-05-08T12:35:52.045Z,1.40
2023-05-08T12:38:20.552Z,1.40
2023-05-08T12:40:53.056Z,1.40
2023-05-08T12:43:21.746Z,1.40
2023-05-08T12:45:53.383Z,1.20
2023-05-08T12:48:23.479Z,1.50
2023-05-08T12:50:52.137Z,1.55
2023-05-08T12:53:21.756Z,1.40
2023-05-08T12:55:53.933Z,1.50
2023-05-08T12:58:26.431Z,1.40
2023-05-08T13:00:56.045Z,1.40
2023-05-08T13:03:27.165Z,1.50
2023-05-08T13:05:56.630Z,1.40
2023-05-08T13:08:31.378Z,1.50
2023-05-08T13:11:00.181Z,1.20
2023-05-08T13:13:29.164Z,1.38
2023-05-08T13:15:57.799Z,1.30
2023-05-08T13:18:28.750Z,1.30
2023-05-08T13:20:57.382Z,1.60
2023-05-08T13:23:26.095Z,1.40
2023-05-08T13:25:54.906Z,1.38
2023-05-08T13:28:23.369Z,1.35
2023-05-08T13:30:51.842Z,1.40
2023-05-08T13:33:20.478Z,1.30
2023-05-08T13:35:50.366Z,1.63
2023-05-08T13:38:18.856Z,1.52
2023-05-08T13:40:48.094Z,1.40
2023-05-08T13:43:16.560Z,1.30
2023-05-08T13:45:45.082Z,1.20
2023-05-08T13:48:13.997Z,1.60
2023-05-08T13:50:42.587Z,1.40
2023-05-08T13:53:12.441Z,1.47
2023-05-08T13:55:42.380Z,1.60
2023-05-08T13:58:10.852Z,1.50
2023-05-08T14:00:39.342Z,1.70
2023-05-08T14:03:08.555Z,1.30
2023-05-08T14:05:37.098Z,1.40
2023-05-08T14:08:05.701Z,1.40
2023-05-08T14:10:35.828Z,1.50
2023-05-08T14:13:04.351Z,1.30
2023-05-08T14:15:37.347Z,1.20
2023-05-08T14:18:06.571Z,1.30
2023-05-08T14:20:35.076Z,1.13
2023-05-08T14:23:03.563Z,1.20
2023-05-08T14:25:32.328Z,1.40
2023-05-08T14:28:02.319Z,1.20
2023-05-08T14:30:30.774Z,1.23
2023-05-08T14:32:59.573Z,1.30
2023-05-08T14:35:28.098Z,1.37
2023-05-08T14:37:56.545Z,1.40
2023-05-08T14:40:25.252Z,1.30
2023-05-08T14:42:53.702Z,1.40
2023-05-08T14:45:23.590Z,1.70
2023-05-08T14:47:52.361Z,1.60
2023-05-08T14:50:20.935Z,1.97
2023-05-08T14:52:49.508Z,1.70
2023-05-08T14:55:20.995Z,1.93
2023-05-08T14:57:49.753Z,1.70
2023-05-08T15:00:18.838Z,1.93
2023-05-08T15:02:49.081Z,1.90
2023-05-08T15:05:19.993Z,2.10
2023-05-08T15:07:50.270Z,2.00
2023-05-08T15:10:18.812Z,1.92
2023-05-08T15:12:47.408Z,1.95
2023-05-08T15:15:16.693Z,1.90
2023-05-08T15:17:45.314Z,2.58
2023-05-08T15:20:15.247Z,2.10
2023-05-08T15:22:43.924Z,1.90
2023-05-08T15:25:12.986Z,2.30
2023-05-08T15:27:42.459Z,2.00
2023-05-08T15:30:11.702Z,2.20
2023-05-08T15:32:40.346Z,2.30
2023-05-08T15:35:09.203Z,2.10
2023-05-08T15:37:39.949Z,2.08
2023-05-08T15:40:10.343Z,2.10
2023-05-08T15:42:38.818Z,2.67
2023-05-08T15:45:07.856Z,2.03
2023-05-08T15:47:36.699Z,2.10
2023-05-08T15:50:05.215Z,1.80
2023-05-08T15:52:33.852Z,1.90
2023-05-08T15:55:03.800Z,2.00
2023-05-08T15:57:32.270Z,1.73
2023-05-08T16:00:01.096Z,2.10
2023-05-08T16:02:29.617Z,2.00
2023-05-08T16:04:58.133Z,1.90
2023-05-08T16:07:26.988Z,1.73
2023-05-08T16:09:55.453Z,1.70
2023-05-08T16:12:25.283Z,2.10
2023-05-08T16:14:54.100Z,2.03
2023-05-08T16:17:22.629Z,1.60
2023-05-08T16:19:51.211Z,1.97
2023-05-08T16:22:19.896Z,1.90
2023-05-08T16:24:48.449Z,1.70
2023-05-08T16:27:16.974Z,1.77
2023-05-08T16:29:46.982Z,1.80
2023-05-08T16:32:16.329Z,1.70
2023-05-08T16:34:44.787Z,1.97
2023-05-08T16:37:13.396Z,1.90
2023-05-08T16:39:41.897Z,1.90
2023-05-08T16:42:10.492Z,1.97
2023-05-08T16:44:39.154Z,2.00
2023-05-08T16:47:09.213Z,1.90
2023-05-08T16:49:37.707Z,1.83
2023-05-08T16:52:06.249Z,1.90
2023-05-08T16:54:34.934Z,1.80
2023-05-08T16:57:03.405Z,1.90
2023-05-08T16:59:32.391Z,1.90
2023-05-08T17:02:00.932Z,2.17
2023-05-08T17:04:31.035Z,1.80
2023-05-08T17:07:00.212Z,1.90
2023-05-08T17:09:28.991Z,1.90
2023-05-08T17:11:58.218Z,1.80
2023-05-08T17:14:26.990Z,1.83
2023-05-08T17:16:55.570Z,1.80
2023-05-08T17:19:24.122Z,1.60
2023-05-08T17:21:54.117Z,1.90
2023-05-08T17:24:22.699Z,1.80
2023-05-08T17:26:51.333Z,1.70
2023-05-08T17:29:19.952Z,1.80
2023-05-08T17:31:48.482Z,1.67
2023-05-08T17:34:17.414Z,1.30
2023-05-08T17:36:46.029Z,1.60
2023-05-08T17:39:15.901Z,1.33
2023-05-08T17:41:44.480Z,1.48
2023-05-08T17:44:13.163Z,1.40
2023-05-08T17:46:41.698Z,1.40
2023-05-08T17:49:10.334Z,1.27
2023-05-08T17:51:38.955Z,1.40
2023-05-08T17:54:07.582Z,1.77
2023-05-08T17:56:37.544Z,1.40
2023-05-08T17:59:06.083Z,1.30
2023-05-08T18:01:34.598Z,1.60
2023-05-08T18:04:03.160Z,1.40
2023-05-08T18:06:31.679Z,1.70
2023-05-08T18:09:00.154Z,1.50
2023-05-08T18:11:28.750Z,1.23
2023-05-08T18:13:58.751Z,1.40
2023-05-08T18:16:27.293Z,1.60
2023-05-08T18:18:55.975Z,1.40
2023-05-08T18:21:24.712Z,1.30
2023-05-08T18:23:53.286Z,1.50
2023-05-08T18:26:21.994Z,1.47
2023-05-08T18:28:51.109Z,1.30
2023-05-08T18:31:20.996Z,1.13
2023-05-08T18:33:49.646Z,1.40
2023-05-08T18:36:18.330Z,1.50
2023-05-08T18:38:46.791Z,1.20
2023-05-08T18:41:15.431Z,1.10
2023-05-08T18:43:44.956Z,1.30
2023-05-08T18:46:13.801Z,1.30
2023-05-08T18:48:43.857Z,1.27
2023-05-08T18:51:12.796Z,1.30
2023-05-08T18:53:41.666Z,1.30
2023-05-08T18:56:11.572Z,1.20
2023-05-08T18:58:40.810Z,1.27
2023-05-08T19:01:09.363Z,1.40
2023-05-08T19:03:38.175Z,1.37
2023-05-08T19:06:08.502Z,1.27
2023-05-08T19:08:36.972Z,1.30
2023-05-08T19:11:05.914Z,1.17
2023-05-08T19:13:34.596Z,1.40
2023-05-08T19:16:03.167Z,1.40
2023-05-08T19:18:31.713Z,1.20
2023-05-08T19:21:00.360Z,1.23
2023-05-08T19:23:30.346Z,1.40
2023-05-08T19:25:59.050Z,1.37
2023-05-08T19:28:27.573Z,1.10
2023-05-08T19:30:56.082Z,1.20
2023-05-08T19:33:24.862Z,1.33
2023-05-08T19:35:53.478Z,1.40
2023-05-08T19:38:22.082Z,1.27
2023-05-08T19:40:56.715Z,1.10
2023-05-08T19:43:26.482Z,1.00
2023-05-08T19:45:55.030Z,1.10
2023-05-08T19:48:23.556Z,1.10
2023-05-08T19:50:54.797Z,1.20
2023-05-08T19:53:23.804Z,1.20
2023-05-08T19:55:53.847Z,1.30
2023-05-08T19:58:22.376Z,1.47
2023-05-08T20:00:51.427Z,1.20
2023-05-08T20:03:20.724Z,1.10
2023-05-08T20:05:49.475Z,1.03
2023-05-08T20:08:17.945Z,1.20
2023-05-08T20:10:49.005Z,1.00
2023-05-08T20:13:19.276Z,1.70
2023-05-08T20:15:47.867Z,1.20
2023-05-08T20:18:16.538Z,1.20
2023-05-08T20:20:46.159Z,1.17
2023-05-08T20:23:14.631Z,1.23
2023-05-08T20:25:46.514Z,1.47
2023-05-08T20:28:15.138Z,1.30
2023-05-08T20:30:45.051Z,1.20
2023-05-08T20:33:13.677Z,1.13
2023-05-08T20:35:42.255Z,1.20
2023-05-08T20:38:10.727Z,1.27
2023-05-08T20:40:39.374Z,1.10
2023-05-08T20:43:07.923Z,1.33
2023-05-08T20:45:36.404Z,1.20
2023-05-08T20:48:06.971Z,1.23
2023-05-08T20:50:35.548Z,1.13
2023-05-08T20:53:04.509Z,1.40
2023-05-08T20:55:33.171Z,1.20
2023-05-08T20:58:03.600Z,1.20
2023-05-08T21:00:32.215Z,1.40
2023-05-08T21:03:00.832Z,1.20
2023-05-08T21:05:31.104Z,1.30
2023-05-08T21:08:03.581Z,1.20
2023-05-08T21:10:32.317Z,1.30
2023-05-08T21:13:00.861Z,0.80
2023-05-08T21:15:29.482Z,1.20
2023-05-08T21:17:58.134Z,1.30
2023-05-08T21:20:26.800Z,1.20
2023-05-08T21:22:56.834Z,1.17
2023-05-08T21:25:25.549Z,1.20
2023-05-08T21:27:55.358Z,1.23
2023-05-08T21:30:24.171Z,1.23
2023-05-08T21:32:52.864Z,1.40
2023-05-08T21:35:21.398Z,1.30
2023-05-08T21:37:50.467Z,1.30
2023-05-08T21:40:22.906Z,1.20
2023-05-08T21:42:51.564Z,1.30
2023-05-08T21:45:22.594Z,1.30
2023-05-08T21:47:51.151Z,1.23
2023-05-08T21:50:19.844Z,1.37
2023-05-08T21:52:48.397Z,1.23
2023-05-08T21:55:16.935Z,1.20
2023-05-08T21:57:46.947Z,1.27
2023-05-08T22:00:16.610Z,1.27
2023-05-08T22:02:45.161Z,1.10
2023-05-08T22:05:14.546Z,1.33
2023-05-08T22:21:15.305Z,1.17
2023-05-08T22:23:43.773Z,1.30
2023-05-08T22:26:12.241Z,1.20
2023-05-08T22:28:41.228Z,1.30
2023-05-08T22:31:09.707Z,1.53
2023-05-08T22:33:38.155Z,1.30
2023-05-08T22:36:07.029Z,1.57
2023-05-08T22:38:36.858Z,1.40
2023-05-08T22:41:05.849Z,1.37
2023-05-08T22:43:35.201Z,1.30
2023-05-08T22:46:03.809Z,1.50
2023-05-08T22:48:32.328Z,1.40
2023-05-08T22:51:01.085Z,1.40
2023-05-08T22:53:29.548Z,1.30
2023-05-08T22:55:59.396Z,1.47
2023-05-08T22:58:29.391Z,1.40
2023-05-08T23:00:59.540Z,1.43
2023-05-08T23:03:28.132Z,1.40
2023-05-08T23:05:56.920Z,1.23
2023-05-08T23:08:25.524Z,1.40
2023-05-08T23:10:53.976Z,1.40
2023-05-08T23:13:24.427Z,1.50
2023-05-08T23:15:55.125Z,1.67
2023-05-08T23:18:23.672Z,1.90
2023-05-08T23:20:52.218Z,1.73
2023-05-08T23:23:20.669Z,1.53
2023-05-08T23:25:49.255Z,1.63
2023-05-08T23:28:17.838Z,1.90
2023-05-08T23:30:47.675Z,1.77
2023-05-08T23:33:16.328Z,1.67
2023-05-08T23:35:44.890Z,1.70
2023-05-08T23:38:13.375Z,1.60
2023-05-08T23:40:41.993Z,1.50
2023-05-08T23:43:11.043Z,1.70
2023-05-08T23:45:39.672Z,1.63
2023-05-08T23:48:09.930Z,1.73
2023-05-08T23:50:38.592Z,1.50
2023-05-08T23:53:07.084Z,1.70
2023-05-08T23:55:37.290Z,1.90
2023-05-08T23:58:05.886Z,1.57
